sensor_id;sensor_type;location;lat;lon;timestamp;P1;durP1;ratioP1;P2;durP2;ratioP2
78820;SDS011;68171;13.882;99.692;2023-05-27T00:00:32;18.10;;;13.18;;
78820;SDS011;68171;13.882;99.692;2023-05-27T00:01:38;18.88;;;13.18;;
78820;SDS011;68171;13.882;99.692;2023-05-27T00:02:42;20.27;;;12.98;;
78820;SDS011;68171;13.882;99.692;2023-05-27T00:03:48;17.97;;;12.70;;
78820;SDS011;68171;13.882;99.692;2023-05-27T00:04:55;20.90;;;13.40;;
78820;SDS011;68171;13.882;99.692;2023-05-27T00:06:01;18.02;;;12.90;;
78820;SDS011;68171;13.882;99.692;2023-05-27T00:07:06;19.70;;;12.85;;
78820;SDS011;68171;13.882;99.692;2023-05-27T00:08:14;19.38;;;12.85;;
78820;SDS011;68171;13.882;99.692;2023-05-27T00:09:19;20.02;;;12.90;;
78820;SDS011;68171;13.882;99.692;2023-05-27T00:10:25;22.42;;;13.02;;
78820;SDS011;68171;13.882;99.692;2023-05-27T00:11:29;19.80;;;12.75;;
78820;SDS011;68171;13.882;99.692;2023-05-27T00:12:35;20.65;;;13.10;;
78820;SDS011;68171;13.882;99.692;2023-05-27T00:13:39;19.33;;;12.90;;
78820;SDS011;68171;13.882;99.692;2023-05-27T00:14:46;16.07;;;12.50;;
78820;SDS011;68171;13.882;99.692;2023-05-27T00:15:50;19.80;;;12.85;;
78820;SDS011;68171;13.882;99.692;2023-05-27T00:16:56;19.38;;;13.38;;
78820;SDS011;68171;13.882;99.692;2023-05-27T00:18:02;18.50;;;12.30;;
78820;SDS011;68171;13.882;99.692;2023-05-27T00:19:07;20.77;;;12.60;;
78820;SDS011;68171;13.882;99.692;2023-05-27T00:20:14;21.40;;;13.13;;
78820;SDS011;68171;13.882;99.692;2023-05-27T00:21:19;20.63;;;12.70;;
78820;SDS011;68171;13.882;99.692;2023-05-27T00:22:24;18.63;;;12.93;;
78820;SDS011;68171;13.882;99.692;2023-05-27T00:23:31;19.63;;;13.35;;
78820;SDS011;68171;13.882;99.692;2023-05-27T00:24:35;20.75;;;12.55;;
78820;SDS011;68171;13.882;99.692;2023-05-27T00:25:42;21.67;;;12.80;;
78820;SDS011;68171;13.882;99.692;2023-05-27T00:26:46;21.08;;;13.25;;
78820;SDS011;68171;13.882;99.692;2023-05-27T00:27:53;18.38;;;12.80;;
78820;SDS011;68171;13.882;99.692;2023-05-27T00:28:57;21.20;;;13.27;;
78820;SDS011;68171;13.882;99.692;2023-05-27T00:30:04;18.95;;;13.30;;
78820;SDS011;68171;13.882;99.692;2023-05-27T00:31:09;19.52;;;12.30;;
78820;SDS011;68171;13.882;99.692;2023-05-27T00:32:15;20.08;;;11.50;;
78820;SDS011;68171;13.882;99.692;2023-05-27T00:33:19;22.65;;;13.80;;
78820;SDS011;68171;13.882;99.692;2023-05-27T00:34:25;21.63;;;12.75;;
78820;SDS011;68171;13.882;99.692;2023-05-27T00:35:31;20.52;;;12.57;;
78820;SDS011;68171;13.882;99.692;2023-05-27T00:36:37;22.13;;;12.90;;
78820;SDS011;68171;13.882;99.692;2023-05-27T00:37:42;17.00;;;12.68;;
78820;SDS011;68171;13.882;99.692;2023-05-27T00:38:48;19.25;;;12.38;;
78820;SDS011;68171;13.882;99.692;2023-05-27T00:39:52;19.08;;;12.30;;
78820;SDS011;68171;13.882;99.692;2023-05-27T00:40:58;18.02;;;13.15;;
78820;SDS011;68171;13.882;99.692;2023-05-27T00:42:04;19.33;;;12.23;;
78820;SDS011;68171;13.882;99.692;2023-05-27T00:43:10;17.95;;;12.90;;
78820;SDS011;68171;13.882;99.692;2023-05-27T00:44:15;22.25;;;12.27;;
78820;SDS011;68171;13.882;99.692;2023-05-27T00:45:21;19.45;;;12.20;;
78820;SDS011;68171;13.882;99.692;2023-05-27T00:46:25;24.25;;;12.70;;
78820;SDS011;68171;13.882;99.692;2023-05-27T00:47:31;20.20;;;11.83;;
78820;SDS011;68171;13.882;99.692;2023-05-27T00:48:36;15.15;;;11.25;;
78820;SDS011;68171;13.882;99.692;2023-05-27T00:49:42;17.20;;;12.25;;
78820;SDS011;68171;13.882;99.692;2023-05-27T00:50:48;17.75;;;11.93;;
78820;SDS011;68171;13.882;99.692;2023-05-27T00:51:54;20.77;;;12.57;;
78820;SDS011;68171;13.882;99.692;2023-05-27T00:52:59;16.15;;;11.93;;
78820;SDS011;68171;13.882;99.692;2023-05-27T00:54:05;18.40;;;11.70;;
78820;SDS011;68171;13.882;99.692;2023-05-27T00:55:10;17.17;;;11.50;;
78820;SDS011;68171;13.882;99.692;2023-05-27T00:56:16;17.15;;;12.77;;
78820;SDS011;68171;13.882;99.692;2023-05-27T00:57:21;16.77;;;11.68;;
78820;SDS011;68171;13.882;99.692;2023-05-27T00:58:27;16.57;;;12.00;;
78820;SDS011;68171;13.882;99.692;2023-05-27T00:59:32;17.13;;;11.88;;
78820;SDS011;68171;13.882;99.692;2023-05-27T01:00:38;18.20;;;11.75;;
78820;SDS011;68171;13.882;99.692;2023-05-27T01:01:43;16.33;;;12.32;;
78820;SDS011;68171;13.882;99.692;2023-05-27T01:02:49;18.27;;;13.07;;
78820;SDS011;68171;13.882;99.692;2023-05-27T01:03:54;15.43;;;12.40;;
78820;SDS011;68171;13.882;99.692;2023-05-27T01:05:00;33.38;;;11.90;;
78820;SDS011;68171;13.882;99.692;2023-05-27T01:06:08;17.63;;;12.05;;
78820;SDS011;68171;13.882;99.692;2023-05-27T01:07:22;17.05;;;11.85;;
78820;SDS011;68171;13.882;99.692;2023-05-27T01:08:34;17.30;;;12.10;;
78820;SDS011;68171;13.882;99.692;2023-05-27T01:09:44;18.77;;;12.40;;
78820;SDS011;68171;13.882;99.692;2023-05-27T01:10:54;16.80;;;13.23;;
78820;SDS011;68171;13.882;99.692;2023-05-27T01:12:02;15.80;;;11.45;;
78820;SDS011;68171;13.882;99.692;2023-05-27T01:13:12;17.83;;;12.18;;
78820;SDS011;68171;13.882;99.692;2023-05-27T01:14:21;17.58;;;12.02;;
78820;SDS011;68171;13.882;99.692;2023-05-27T01:15:27;21.05;;;12.30;;
78820;SDS011;68171;13.882;99.692;2023-05-27T01:16:33;19.08;;;12.18;;
78820;SDS011;68171;13.882;99.692;2023-05-27T01:17:42;17.98;;;11.88;;
78820;SDS011;68171;13.882;99.692;2023-05-27T01:18:50;22.98;;;11.82;;
78820;SDS011;68171;13.882;99.692;2023-05-27T01:19:57;21.35;;;11.68;;
78820;SDS011;68171;13.882;99.692;2023-05-27T01:21:05;17.77;;;11.67;;
78820;SDS011;68171;13.882;99.692;2023-05-27T01:22:14;18.23;;;11.80;;
78820;SDS011;68171;13.882;99.692;2023-05-27T01:23:22;21.23;;;11.35;;
78820;SDS011;68171;13.882;99.692;2023-05-27T01:24:27;17.40;;;12.30;;
78820;SDS011;68171;13.882;99.692;2023-05-27T01:25:33;18.02;;;11.95;;
78820;SDS011;68171;13.882;99.692;2023-05-27T01:26:37;20.25;;;12.10;;
78820;SDS011;68171;13.882;99.692;2023-05-27T01:27:43;19.25;;;12.23;;
78820;SDS011;68171;13.882;99.692;2023-05-27T01:28:47;17.27;;;12.13;;
78820;SDS011;68171;13.882;99.692;2023-05-27T01:29:53;18.05;;;11.40;;
78820;SDS011;68171;13.882;99.692;2023-05-27T01:31:01;20.00;;;11.98;;
78820;SDS011;68171;13.882;99.692;2023-05-27T01:32:12;14.87;;;11.20;;
78820;SDS011;68171;13.882;99.692;2023-05-27T01:33:20;17.90;;;11.65;;
78820;SDS011;68171;13.882;99.692;2023-05-27T01:34:29;18.00;;;11.43;;
78820;SDS011;68171;13.882;99.692;2023-05-27T01:35:39;19.80;;;11.30;;
78820;SDS011;68171;13.882;99.692;2023-05-27T01:36:48;19.00;;;11.98;;
78820;SDS011;68171;13.882;99.692;2023-05-27T01:37:54;14.95;;;11.25;;
78820;SDS011;68171;13.882;99.692;2023-05-27T01:39:03;14.98;;;10.85;;
78820;SDS011;68171;13.882;99.692;2023-05-27T01:40:09;17.65;;;11.35;;
78820;SDS011;68171;13.882;99.692;2023-05-27T01:41:17;18.23;;;12.23;;
78820;SDS011;68171;13.882;99.692;2023-05-27T01:42:22;16.23;;;11.35;;
78820;SDS011;68171;13.882;99.692;2023-05-27T01:43:28;19.00;;;11.27;;
78820;SDS011;68171;13.882;99.692;2023-05-27T01:44:33;16.45;;;12.00;;
78820;SDS011;68171;13.882;99.692;2023-05-27T01:45:39;19.70;;;11.50;;
78820;SDS011;68171;13.882;99.692;2023-05-27T01:46:44;17.52;;;11.20;;
78820;SDS011;68171;13.882;99.692;2023-05-27T01:47:50;19.50;;;11.55;;
78820;SDS011;68171;13.882;99.692;2023-05-27T01:48:55;19.02;;;12.07;;
78820;SDS011;68171;13.882;99.692;2023-05-27T01:50:01;20.77;;;11.68;;
78820;SDS011;68171;13.882;99.692;2023-05-27T01:51:06;18.65;;;11.40;;
78820;SDS011;68171;13.882;99.692;2023-05-27T01:52:11;20.85;;;12.20;;
78820;SDS011;68171;13.882;99.692;2023-05-27T01:53:16;18.88;;;11.80;;
78820;SDS011;68171;13.882;99.692;2023-05-27T01:54:24;19.27;;;12.57;;
78820;SDS011;68171;13.882;99.692;2023-05-27T01:55:28;18.10;;;12.15;;
78820;SDS011;68171;13.882;99.692;2023-05-27T01:56:34;19.80;;;12.88;;
78820;SDS011;68171;13.882;99.692;2023-05-27T01:57:39;18.63;;;10.90;;
78820;SDS011;68171;13.882;99.692;2023-05-27T01:58:45;16.45;;;11.02;;
78820;SDS011;68171;13.882;99.692;2023-05-27T01:59:50;16.45;;;11.02;;
78820;SDS011;68171;13.882;99.692;2023-05-27T02:00:56;15.85;;;10.88;;
78820;SDS011;68171;13.882;99.692;2023-05-27T02:02:01;17.27;;;11.20;;
78820;SDS011;68171;13.882;99.692;2023-05-27T02:03:07;18.17;;;10.82;;
78820;SDS011;68171;13.882;99.692;2023-05-27T02:04:12;16.08;;;10.75;;
78820;SDS011;68171;13.882;99.692;2023-05-27T02:05:18;19.20;;;11.27;;
78820;SDS011;68171;13.882;99.692;2023-05-27T02:06:22;17.98;;;11.55;;
78820;SDS011;68171;13.882;99.692;2023-05-27T02:07:28;17.30;;;10.57;;
78820;SDS011;68171;13.882;99.692;2023-05-27T02:08:32;19.48;;;11.23;;
78820;SDS011;68171;13.882;99.692;2023-05-27T02:09:40;19.13;;;11.98;;
78820;SDS011;68171;13.882;99.692;2023-05-27T02:10:44;15.48;;;11.13;;
78820;SDS011;68171;13.882;99.692;2023-05-27T02:11:50;17.15;;;10.93;;
78820;SDS011;68171;13.882;99.692;2023-05-27T02:12:55;19.85;;;11.73;;
78820;SDS011;68171;13.882;99.692;2023-05-27T02:14:01;19.05;;;11.43;;
78820;SDS011;68171;13.882;99.692;2023-05-27T02:15:05;22.10;;;11.63;;
78820;SDS011;68171;13.882;99.692;2023-05-27T02:16:12;18.53;;;11.47;;
78820;SDS011;68171;13.882;99.692;2023-05-27T02:17:17;17.95;;;11.45;;
78820;SDS011;68171;13.882;99.692;2023-05-27T02:18:23;13.88;;;10.75;;
78820;SDS011;68171;13.882;99.692;2023-05-27T02:19:28;15.40;;;11.65;;
78820;SDS011;68171;13.882;99.692;2023-05-27T02:20:34;19.80;;;10.95;;
78820;SDS011;68171;13.882;99.692;2023-05-27T02:21:38;19.48;;;12.18;;
78820;SDS011;68171;13.882;99.692;2023-05-27T02:22:44;15.50;;;11.15;;
78820;SDS011;68171;13.882;99.692;2023-05-27T02:23:49;18.20;;;11.35;;
78820;SDS011;68171;13.882;99.692;2023-05-27T02:24:56;16.77;;;10.05;;
78820;SDS011;68171;13.882;99.692;2023-05-27T02:26:01;13.15;;;10.07;;
78820;SDS011;68171;13.882;99.692;2023-05-27T02:27:07;16.50;;;10.70;;
78820;SDS011;68171;13.882;99.692;2023-05-27T02:28:11;16.30;;;10.30;;
78820;SDS011;68171;13.882;99.692;2023-05-27T02:29:17;19.67;;;11.13;;
78820;SDS011;68171;13.882;99.692;2023-05-27T02:30:22;16.13;;;10.27;;
78820;SDS011;68171;13.882;99.692;2023-05-27T02:31:27;18.17;;;10.20;;
78820;SDS011;68171;13.882;99.692;2023-05-27T02:32:32;15.07;;;9.90;;
78820;SDS011;68171;13.882;99.692;2023-05-27T02:33:38;16.25;;;10.05;;
78820;SDS011;68171;13.882;99.692;2023-05-27T02:34:42;16.33;;;9.82;;
78820;SDS011;68171;13.882;99.692;2023-05-27T02:35:48;15.82;;;10.18;;
78820;SDS011;68171;13.882;99.692;2023-05-27T02:36:53;17.55;;;10.35;;
78820;SDS011;68171;13.882;99.692;2023-05-27T02:37:59;13.37;;;9.03;;
78820;SDS011;68171;13.882;99.692;2023-05-27T02:39:03;15.65;;;9.38;;
78820;SDS011;68171;13.882;99.692;2023-05-27T02:40:12;14.63;;;9.85;;
78820;SDS011;68171;13.882;99.692;2023-05-27T02:41:23;16.17;;;10.32;;
78820;SDS011;68171;13.882;99.692;2023-05-27T02:42:29;13.68;;;10.48;;
78820;SDS011;68171;13.882;99.692;2023-05-27T02:43:34;17.38;;;9.85;;
78820;SDS011;68171;13.882;99.692;2023-05-27T02:44:40;17.33;;;10.60;;
78820;SDS011;68171;13.882;99.692;2023-05-27T02:45:44;14.65;;;9.88;;
78820;SDS011;68171;13.882;99.692;2023-05-27T02:46:50;12.77;;;9.32;;
78820;SDS011;68171;13.882;99.692;2023-05-27T02:47:55;14.43;;;10.68;;
78820;SDS011;68171;13.882;99.692;2023-05-27T02:49:04;14.30;;;9.97;;
78820;SDS011;68171;13.882;99.692;2023-05-27T02:50:08;15.45;;;10.38;;
78820;SDS011;68171;13.882;99.692;2023-05-27T02:51:14;15.70;;;10.30;;
78820;SDS011;68171;13.882;99.692;2023-05-27T02:52:19;13.82;;;9.55;;
78820;SDS011;68171;13.882;99.692;2023-05-27T02:53:25;16.33;;;10.35;;
78820;SDS011;68171;13.882;99.692;2023-05-27T02:54:29;15.95;;;10.02;;
78820;SDS011;68171;13.882;99.692;2023-05-27T02:55:37;16.45;;;10.98;;
78820;SDS011;68171;13.882;99.692;2023-05-27T02:56:41;17.02;;;9.93;;
78820;SDS011;68171;13.882;99.692;2023-05-27T02:57:47;18.27;;;9.93;;
78820;SDS011;68171;13.882;99.692;2023-05-27T02:58:52;13.00;;;10.20;;
78820;SDS011;68171;13.882;99.692;2023-05-27T03:00:00;17.93;;;11.27;;
78820;SDS011;68171;13.882;99.692;2023-05-27T03:01:06;19.10;;;11.25;;
78820;SDS011;68171;13.882;99.692;2023-05-27T03:02:12;15.55;;;10.57;;
78820;SDS011;68171;13.882;99.692;2023-05-27T03:03:17;14.88;;;10.52;;
78820;SDS011;68171;13.882;99.692;2023-05-27T03:04:23;17.88;;;9.85;;
78820;SDS011;68171;13.882;99.692;2023-05-27T03:05:27;19.83;;;10.90;;
78820;SDS011;68171;13.882;99.692;2023-05-27T03:06:33;20.33;;;10.82;;
78820;SDS011;68171;13.882;99.692;2023-05-27T03:07:39;17.05;;;11.43;;
78820;SDS011;68171;13.882;99.692;2023-05-27T03:08:45;20.25;;;11.65;;
78820;SDS011;68171;13.882;99.692;2023-05-27T03:09:49;23.27;;;13.20;;
78820;SDS011;68171;13.882;99.692;2023-05-27T03:10:57;20.53;;;12.07;;
78820;SDS011;68171;13.882;99.692;2023-05-27T03:12:01;19.70;;;11.07;;
78820;SDS011;68171;13.882;99.692;2023-05-27T03:13:08;20.73;;;10.68;;
78820;SDS011;68171;13.882;99.692;2023-05-27T03:14:12;14.63;;;10.40;;
78820;SDS011;68171;13.882;99.692;2023-05-27T03:15:18;15.73;;;11.35;;
78820;SDS011;68171;13.882;99.692;2023-05-27T03:16:24;17.20;;;10.40;;
78820;SDS011;68171;13.882;99.692;2023-05-27T03:17:30;17.27;;;10.90;;
78820;SDS011;68171;13.882;99.692;2023-05-27T03:18:35;14.63;;;9.98;;
78820;SDS011;68171;13.882;99.692;2023-05-27T03:19:40;16.20;;;10.18;;
78820;SDS011;68171;13.882;99.692;2023-05-27T03:20:46;15.27;;;10.38;;
78820;SDS011;68171;13.882;99.692;2023-05-27T03:21:53;16.77;;;11.20;;
78820;SDS011;68171;13.882;99.692;2023-05-27T03:22:57;16.23;;;10.27;;
78820;SDS011;68171;13.882;99.692;2023-05-27T03:24:03;14.93;;;9.43;;
78820;SDS011;68171;13.882;99.692;2023-05-27T03:25:08;16.50;;;10.55;;
78820;SDS011;68171;13.882;99.692;2023-05-27T03:26:16;18.42;;;10.90;;
78820;SDS011;68171;13.882;99.692;2023-05-27T03:27:20;13.68;;;9.60;;
78820;SDS011;68171;13.882;99.692;2023-05-27T03:28:26;16.70;;;10.48;;
78820;SDS011;68171;13.882;99.692;2023-05-27T03:29:30;17.02;;;10.55;;
78820;SDS011;68171;13.882;99.692;2023-05-27T03:30:36;15.35;;;9.77;;
78820;SDS011;68171;13.882;99.692;2023-05-27T03:31:41;15.98;;;10.52;;
78820;SDS011;68171;13.882;99.692;2023-05-27T03:32:47;16.13;;;9.63;;
78820;SDS011;68171;13.882;99.692;2023-05-27T03:33:51;16.43;;;10.40;;
78820;SDS011;68171;13.882;99.692;2023-05-27T03:34:57;14.18;;;9.77;;
78820;SDS011;68171;13.882;99.692;2023-05-27T03:36:02;15.05;;;10.20;;
78820;SDS011;68171;13.882;99.692;2023-05-27T03:37:08;15.70;;;10.40;;
78820;SDS011;68171;13.882;99.692;2023-05-27T03:38:14;14.48;;;9.50;;
78820;SDS011;68171;13.882;99.692;2023-05-27T03:39:18;15.25;;;9.98;;
78820;SDS011;68171;13.882;99.692;2023-05-27T03:40:24;14.40;;;9.60;;
78820;SDS011;68171;13.882;99.692;2023-05-27T03:41:30;14.93;;;9.45;;
78820;SDS011;68171;13.882;99.692;2023-05-27T03:42:36;14.35;;;9.50;;
78820;SDS011;68171;13.882;99.692;2023-05-27T03:43:40;13.23;;;9.43;;
78820;SDS011;68171;13.882;99.692;2023-05-27T03:44:46;15.33;;;9.37;;
78820;SDS011;68171;13.882;99.692;2023-05-27T03:45:51;16.95;;;9.88;;
78820;SDS011;68171;13.882;99.692;2023-05-27T03:46:57;17.42;;;9.68;;
78820;SDS011;68171;13.882;99.692;2023-05-27T03:48:01;16.33;;;10.45;;
78820;SDS011;68171;13.882;99.692;2023-05-27T03:49:08;13.93;;;9.60;;
78820;SDS011;68171;13.882;99.692;2023-05-27T03:50:13;18.85;;;9.60;;
78820;SDS011;68171;13.882;99.692;2023-05-27T03:51:19;13.52;;;9.15;;
78820;SDS011;68171;13.882;99.692;2023-05-27T03:52:25;14.95;;;9.40;;
78820;SDS011;68171;13.882;99.692;2023-05-27T03:53:29;11.80;;;9.60;;
78820;SDS011;68171;13.882;99.692;2023-05-27T03:54:35;14.93;;;9.60;;
78820;SDS011;68171;13.882;99.692;2023-05-27T03:55:40;16.13;;;10.17;;
78820;SDS011;68171;13.882;99.692;2023-05-27T03:56:47;18.15;;;10.13;;
78820;SDS011;68171;13.882;99.692;2023-05-27T03:57:52;13.27;;;9.50;;
78820;SDS011;68171;13.882;99.692;2023-05-27T03:58:57;15.32;;;10.18;;
78820;SDS011;68171;13.882;99.692;2023-05-27T04:00:02;13.85;;;9.35;;
78820;SDS011;68171;13.882;99.692;2023-05-27T04:01:11;14.68;;;9.95;;
78820;SDS011;68171;13.882;99.692;2023-05-27T04:02:15;17.10;;;9.82;;
78820;SDS011;68171;13.882;99.692;2023-05-27T04:03:21;13.52;;;10.00;;
78820;SDS011;68171;13.882;99.692;2023-05-27T04:04:26;13.65;;;10.38;;
78820;SDS011;68171;13.882;99.692;2023-05-27T04:05:32;15.23;;;9.43;;
78820;SDS011;68171;13.882;99.692;2023-05-27T04:06:38;14.47;;;9.03;;
78820;SDS011;68171;13.882;99.692;2023-05-27T04:07:45;13.48;;;10.13;;
78820;SDS011;68171;13.882;99.692;2023-05-27T04:08:49;12.75;;;9.43;;
78820;SDS011;68171;13.882;99.692;2023-05-27T04:09:55;19.10;;;12.23;;
78820;SDS011;68171;13.882;99.692;2023-05-27T04:11:00;20.23;;;11.57;;
78820;SDS011;68171;13.882;99.692;2023-05-27T04:12:08;17.85;;;10.40;;
78820;SDS011;68171;13.882;99.692;2023-05-27T04:13:13;14.65;;;9.73;;
78820;SDS011;68171;13.882;99.692;2023-05-27T04:14:19;14.05;;;9.45;;
78820;SDS011;68171;13.882;99.692;2023-05-27T04:15:24;15.55;;;9.70;;
78820;SDS011;68171;13.882;99.692;2023-05-27T04:16:30;13.70;;;9.70;;
78820;SDS011;68171;13.882;99.692;2023-05-27T04:17:36;15.27;;;9.40;;
78820;SDS011;68171;13.882;99.692;2023-05-27T04:18:42;15.05;;;9.25;;
78820;SDS011;68171;13.882;99.692;2023-05-27T04:19:51;17.83;;;10.18;;
78820;SDS011;68171;13.882;99.692;2023-05-27T04:20:57;15.25;;;10.45;;
78820;SDS011;68171;13.882;99.692;2023-05-27T04:22:02;14.45;;;10.38;;
78820;SDS011;68171;13.882;99.692;2023-05-27T04:23:08;13.25;;;10.00;;
78820;SDS011;68171;13.882;99.692;2023-05-27T04:24:13;17.58;;;10.45;;
78820;SDS011;68171;13.882;99.692;2023-05-27T04:25:19;15.98;;;10.40;;
78820;SDS011;68171;13.882;99.692;2023-05-27T04:26:23;17.48;;;10.00;;
78820;SDS011;68171;13.882;99.692;2023-05-27T04:27:31;16.33;;;9.07;;
78820;SDS011;68171;13.882;99.692;2023-05-27T04:28:36;14.27;;;9.77;;
78820;SDS011;68171;13.882;99.692;2023-05-27T04:29:43;15.00;;;9.70;;
78820;SDS011;68171;13.882;99.692;2023-05-27T04:30:48;13.07;;;9.73;;
78820;SDS011;68171;13.882;99.692;2023-05-27T04:31:56;16.33;;;9.77;;
78820;SDS011;68171;13.882;99.692;2023-05-27T04:33:01;12.35;;;8.65;;
78820;SDS011;68171;13.882;99.692;2023-05-27T04:34:07;16.13;;;9.32;;
78820;SDS011;68171;13.882;99.692;2023-05-27T04:35:12;13.40;;;9.40;;
78820;SDS011;68171;13.882;99.692;2023-05-27T04:36:17;15.70;;;9.68;;
78820;SDS011;68171;13.882;99.692;2023-05-27T04:37:22;13.95;;;9.27;;
78820;SDS011;68171;13.882;99.692;2023-05-27T04:38:30;17.27;;;9.93;;
78820;SDS011;68171;13.882;99.692;2023-05-27T04:39:35;15.20;;;9.63;;
78820;SDS011;68171;13.882;99.692;2023-05-27T04:40:49;15.93;;;9.05;;
78820;SDS011;68171;13.882;99.692;2023-05-27T04:41:55;13.68;;;8.90;;
78820;SDS011;68171;13.882;99.692;2023-05-27T04:43:03;13.35;;;9.65;;
78820;SDS011;68171;13.882;99.692;2023-05-27T04:44:07;12.88;;;9.13;;
78820;SDS011;68171;13.882;99.692;2023-05-27T04:45:14;12.38;;;8.90;;
78820;SDS011;68171;13.882;99.692;2023-05-27T04:46:19;15.65;;;8.52;;
78820;SDS011;68171;13.882;99.692;2023-05-27T04:47:25;15.07;;;8.80;;
78820;SDS011;68171;13.882;99.692;2023-05-27T04:48:29;15.40;;;9.20;;
78820;SDS011;68171;13.882;99.692;2023-05-27T04:49:38;14.23;;;8.70;;
78820;SDS011;68171;13.882;99.692;2023-05-27T04:50:42;18.57;;;9.23;;
78820;SDS011;68171;13.882;99.692;2023-05-27T04:51:48;14.50;;;9.05;;
78820;SDS011;68171;13.882;99.692;2023-05-27T04:52:52;12.25;;;8.20;;
78820;SDS011;68171;13.882;99.692;2023-05-27T04:54:01;11.45;;;8.48;;
78820;SDS011;68171;13.882;99.692;2023-05-27T04:55:06;13.43;;;8.25;;
78820;SDS011;68171;13.882;99.692;2023-05-27T04:56:13;15.35;;;8.98;;
78820;SDS011;68171;13.882;99.692;2023-05-27T04:57:17;14.27;;;9.07;;
78820;SDS011;68171;13.882;99.692;2023-05-27T04:58:25;11.23;;;8.15;;
78820;SDS011;68171;13.882;99.692;2023-05-27T04:59:29;15.27;;;8.95;;
78820;SDS011;68171;13.882;99.692;2023-05-27T05:00:49;11.17;;;7.87;;
78820;SDS011;68171;13.882;99.692;2023-05-27T05:01:56;12.67;;;7.90;;
78820;SDS011;68171;13.882;99.692;2023-05-27T05:03:13;11.90;;;7.93;;
78820;SDS011;68171;13.882;99.692;2023-05-27T05:04:24;13.35;;;8.65;;
78820;SDS011;68171;13.882;99.692;2023-05-27T05:05:28;12.52;;;7.90;;
78820;SDS011;68171;13.882;99.692;2023-05-27T05:06:35;13.60;;;8.00;;
78820;SDS011;68171;13.882;99.692;2023-05-27T05:07:40;12.25;;;7.90;;
78820;SDS011;68171;13.882;99.692;2023-05-27T05:08:46;11.30;;;8.00;;
78820;SDS011;68171;13.882;99.692;2023-05-27T05:09:51;12.25;;;8.57;;
78820;SDS011;68171;13.882;99.692;2023-05-27T05:10:57;14.98;;;8.50;;
78820;SDS011;68171;13.882;99.692;2023-05-27T05:12:01;10.80;;;7.77;;
78820;SDS011;68171;13.882;99.692;2023-05-27T05:13:07;12.07;;;8.07;;
78820;SDS011;68171;13.882;99.692;2023-05-27T05:14:13;13.60;;;8.02;;
78820;SDS011;68171;13.882;99.692;2023-05-27T05:15:19;15.38;;;8.00;;
78820;SDS011;68171;13.882;99.692;2023-05-27T05:16:24;12.32;;;8.10;;
78820;SDS011;68171;13.882;99.692;2023-05-27T05:17:29;12.63;;;8.60;;
78820;SDS011;68171;13.882;99.692;2023-05-27T05:18:34;14.23;;;8.32;;
78820;SDS011;68171;13.882;99.692;2023-05-27T05:19:40;11.18;;;7.75;;
78820;SDS011;68171;13.882;99.692;2023-05-27T05:20:44;14.43;;;8.48;;
78820;SDS011;68171;13.882;99.692;2023-05-27T05:21:50;10.55;;;8.15;;
78820;SDS011;68171;13.882;99.692;2023-05-27T05:22:55;12.83;;;8.23;;
78820;SDS011;68171;13.882;99.692;2023-05-27T05:24:01;12.47;;;8.50;;
78820;SDS011;68171;13.882;99.692;2023-05-27T05:25:06;12.13;;;8.02;;
78820;SDS011;68171;13.882;99.692;2023-05-27T05:26:12;12.13;;;8.98;;
78820;SDS011;68171;13.882;99.692;2023-05-27T05:27:17;13.40;;;8.70;;
78820;SDS011;68171;13.882;99.692;2023-05-27T05:28:23;12.50;;;8.38;;
78820;SDS011;68171;13.882;99.692;2023-05-27T05:29:29;13.77;;;8.35;;
78820;SDS011;68171;13.882;99.692;2023-05-27T05:30:35;14.35;;;7.97;;
78820;SDS011;68171;13.882;99.692;2023-05-27T05:31:41;11.65;;;7.90;;
78820;SDS011;68171;13.882;99.692;2023-05-27T05:32:47;11.57;;;7.80;;
78820;SDS011;68171;13.882;99.692;2023-05-27T05:33:53;16.83;;;8.67;;
78820;SDS011;68171;13.882;99.692;2023-05-27T05:34:58;13.97;;;7.87;;
78820;SDS011;68171;13.882;99.692;2023-05-27T05:36:04;13.40;;;8.10;;
78820;SDS011;68171;13.882;99.692;2023-05-27T05:37:09;12.20;;;8.68;;
78820;SDS011;68171;13.882;99.692;2023-05-27T05:38:15;12.25;;;8.07;;
78820;SDS011;68171;13.882;99.692;2023-05-27T05:39:20;12.10;;;8.15;;
78820;SDS011;68171;13.882;99.692;2023-05-27T05:40:25;13.70;;;8.68;;
78820;SDS011;68171;13.882;99.692;2023-05-27T05:41:30;16.13;;;8.80;;
78820;SDS011;68171;13.882;99.692;2023-05-27T05:42:36;12.23;;;7.53;;
78820;SDS011;68171;13.882;99.692;2023-05-27T05:43:40;12.43;;;8.30;;
78820;SDS011;68171;13.882;99.692;2023-05-27T05:44:48;14.97;;;8.67;;
78820;SDS011;68171;13.882;99.692;2023-05-27T05:45:52;11.23;;;8.47;;
78820;SDS011;68171;13.882;99.692;2023-05-27T05:46:58;12.48;;;7.95;;
78820;SDS011;68171;13.882;99.692;2023-05-27T05:48:03;12.18;;;7.55;;
78820;SDS011;68171;13.882;99.692;2023-05-27T05:49:08;12.07;;;8.05;;
78820;SDS011;68171;13.882;99.692;2023-05-27T05:50:13;12.65;;;8.20;;
78820;SDS011;68171;13.882;99.692;2023-05-27T05:51:19;11.95;;;8.00;;
78820;SDS011;68171;13.882;99.692;2023-05-27T05:52:23;13.20;;;8.27;;
78820;SDS011;68171;13.882;99.692;2023-05-27T05:53:29;13.25;;;7.95;;
78820;SDS011;68171;13.882;99.692;2023-05-27T05:54:36;10.40;;;7.32;;
78820;SDS011;68171;13.882;99.692;2023-05-27T05:55:40;11.37;;;8.00;;
78820;SDS011;68171;13.882;99.692;2023-05-27T05:56:46;14.87;;;8.03;;
78820;SDS011;68171;13.882;99.692;2023-05-27T05:57:50;10.75;;;7.93;;
78820;SDS011;68171;13.882;99.692;2023-05-27T05:58:56;9.88;;;7.60;;
78820;SDS011;68171;13.882;99.692;2023-05-27T06:00:03;13.20;;;7.85;;
78820;SDS011;68171;13.882;99.692;2023-05-27T06:01:11;10.80;;;7.70;;
78820;SDS011;68171;13.882;99.692;2023-05-27T06:02:16;10.85;;;8.40;;
78820;SDS011;68171;13.882;99.692;2023-05-27T06:03:22;11.77;;;8.13;;
78820;SDS011;68171;13.882;99.692;2023-05-27T06:04:26;12.60;;;7.90;;
78820;SDS011;68171;13.882;99.692;2023-05-27T06:05:32;10.90;;;7.85;;
78820;SDS011;68171;13.882;99.692;2023-05-27T06:06:37;12.00;;;7.10;;
78820;SDS011;68171;13.882;99.692;2023-05-27T06:07:43;10.73;;;6.93;;
78820;SDS011;68171;13.882;99.692;2023-05-27T06:08:49;11.43;;;7.80;;
78820;SDS011;68171;13.882;99.692;2023-05-27T06:09:55;11.20;;;7.15;;
78820;SDS011;68171;13.882;99.692;2023-05-27T06:10:59;10.07;;;7.53;;
78820;SDS011;68171;13.882;99.692;2023-05-27T06:12:05;10.43;;;7.32;;
78820;SDS011;68171;13.882;99.692;2023-05-27T06:13:10;10.57;;;7.70;;
78820;SDS011;68171;13.882;99.692;2023-05-27T06:14:16;10.63;;;7.70;;
78820;SDS011;68171;13.882;99.692;2023-05-27T06:15:22;13.63;;;7.00;;
78820;SDS011;68171;13.882;99.692;2023-05-27T06:16:29;19.13;;;8.02;;
78820;SDS011;68171;13.882;99.692;2023-05-27T06:17:34;14.50;;;7.30;;
78820;SDS011;68171;13.882;99.692;2023-05-27T06:18:40;11.10;;;7.70;;
78820;SDS011;68171;13.882;99.692;2023-05-27T06:19:48;12.10;;;6.80;;
78820;SDS011;68171;13.882;99.692;2023-05-27T06:20:54;14.90;;;6.90;;
78820;SDS011;68171;13.882;99.692;2023-05-27T06:21:58;12.32;;;7.18;;